sensor_id;sensor_type;location;lat;lon;timestamp;P1;durP1;ratioP1;P2;durP2;ratioP2
830;SDS011;397;50.564;7.272;2024-03-07T00:00:06;23.43;;;13.60;;
830;SDS011;397;50.564;7.272;2024-03-07T00:02:36;15.77;;;11.30;;
830;SDS011;397;50.564;7.272;2024-03-07T00:05:04;19.87;;;14.30;;
830;SDS011;397;50.564;7.272;2024-03-07T00:07:31;18.23;;;12.60;;
830;SDS011;397;50.564;7.272;2024-03-07T00:09:59;19.77;;;13.70;;
830;SDS011;397;50.564;7.272;2024-03-07T00:12:26;20.07;;;13.03;;
830;SDS011;397;50.564;7.272;2024-03-07T00:14:53;18.27;;;13.30;;
830;SDS011;397;50.564;7.272;2024-03-07T00:17:21;19.63;;;14.40;;
830;SDS011;397;50.564;7.272;2024-03-07T00:19:49;22.67;;;14.20;;
830;SDS011;397;50.564;7.272;2024-03-07T00:22:16;19.10;;;13.30;;
830;SDS011;397;50.564;7.272;2024-03-07T00:24:43;14.70;;;11.50;;
830;SDS011;397;50.564;7.272;2024-03-07T00:27:13;20.87;;;14.00;;
830;SDS011;397;50.564;7.272;2024-03-07T00:29:40;19.73;;;14.47;;
830;SDS011;397;50.564;7.272;2024-03-07T00:32:08;18.40;;;12.67;;
830;SDS011;397;50.564;7.272;2024-03-07T00:34:36;22.47;;;14.70;;
830;SDS011;397;50.564;7.272;2024-03-07T00:37:05;22.33;;;14.93;;
830;SDS011;397;50.564;7.272;2024-03-07T00:39:32;18.97;;;13.63;;
830;SDS011;397;50.564;7.272;2024-03-07T00:41:59;18.17;;;14.20;;
830;SDS011;397;50.564;7.272;2024-03-07T00:44:27;21.47;;;14.37;;
830;SDS011;397;50.564;7.272;2024-03-07T00:46:54;19.60;;;14.17;;
830;SDS011;397;50.564;7.272;2024-03-07T00:49:21;26.13;;;15.40;;
830;SDS011;397;50.564;7.272;2024-03-07T00:51:48;23.57;;;15.83;;
830;SDS011;397;50.564;7.272;2024-03-07T00:54:16;23.40;;;14.17;;
830;SDS011;397;50.564;7.272;2024-03-07T00:56:43;17.80;;;12.70;;
830;SDS011;397;50.564;7.272;2024-03-07T00:59:11;20.80;;;14.00;;
830;SDS011;397;50.564;7.272;2024-03-07T01:01:38;17.50;;;13.70;;
830;SDS011;397;50.564;7.272;2024-03-07T01:04:07;20.80;;;15.00;;
830;SDS011;397;50.564;7.272;2024-03-07T01:06:34;26.43;;;15.20;;
830;SDS011;397;50.564;7.272;2024-03-07T01:09:03;25.27;;;16.10;;
830;SDS011;397;50.564;7.272;2024-03-07T01:11:31;25.23;;;15.13;;
830;SDS011;397;50.564;7.272;2024-03-07T01:13:58;16.67;;;12.57;;
830;SDS011;397;50.564;7.272;2024-03-07T01:16:25;23.00;;;16.17;;
830;SDS011;397;50.564;7.272;2024-03-07T01:18:52;21.33;;;14.03;;
830;SDS011;397;50.564;7.272;2024-03-07T01:21:20;20.17;;;13.47;;
830;SDS011;397;50.564;7.272;2024-03-07T01:23:47;23.97;;;15.27;;
830;SDS011;397;50.564;7.272;2024-03-07T01:26:15;24.00;;;15.77;;
830;SDS011;397;50.564;7.272;2024-03-07T01:28:42;19.43;;;14.37;;
830;SDS011;397;50.564;7.272;2024-03-07T01:31:09;22.97;;;14.93;;
830;SDS011;397;50.564;7.272;2024-03-07T01:33:36;24.13;;;16.17;;
830;SDS011;397;50.564;7.272;2024-03-07T01:36:04;24.10;;;15.20;;
830;SDS011;397;50.564;7.272;2024-03-07T01:38:31;22.43;;;16.70;;
830;SDS011;397;50.564;7.272;2024-03-07T01:40:58;21.43;;;14.73;;
830;SDS011;397;50.564;7.272;2024-03-07T01:43:25;20.50;;;14.00;;
830;SDS011;397;50.564;7.272;2024-03-07T01:45:53;25.60;;;16.50;;
830;SDS011;397;50.564;7.272;2024-03-07T01:48:24;23.03;;;16.03;;
830;SDS011;397;50.564;7.272;2024-03-07T01:50:50;22.00;;;15.40;;
830;SDS011;397;50.564;7.272;2024-03-07T01:53:17;23.17;;;15.60;;
830;SDS011;397;50.564;7.272;2024-03-07T01:55:45;26.43;;;16.37;;
830;SDS011;397;50.564;7.272;2024-03-07T01:58:13;26.93;;;17.67;;
830;SDS011;397;50.564;7.272;2024-03-07T02:00:41;19.00;;;14.00;;
830;SDS011;397;50.564;7.272;2024-03-07T02:03:10;22.97;;;15.50;;
830;SDS011;397;50.564;7.272;2024-03-07T02:05:37;23.17;;;15.53;;
830;SDS011;397;50.564;7.272;2024-03-07T02:08:04;20.40;;;14.53;;
830;SDS011;397;50.564;7.272;2024-03-07T02:10:32;25.50;;;15.30;;
830;SDS011;397;50.564;7.272;2024-03-07T02:12:59;20.03;;;13.90;;
830;SDS011;397;50.564;7.272;2024-03-07T02:15:29;24.80;;;16.30;;
830;SDS011;397;50.564;7.272;2024-03-07T02:17:57;17.20;;;13.00;;
830;SDS011;397;50.564;7.272;2024-03-07T02:20:24;21.03;;;14.13;;
830;SDS011;397;50.564;7.272;2024-03-07T02:22:51;20.47;;;15.67;;
830;SDS011;397;50.564;7.272;2024-03-07T02:25:18;20.23;;;13.17;;
830;SDS011;397;50.564;7.272;2024-03-07T02:27:46;22.10;;;15.40;;
830;SDS011;397;50.564;7.272;2024-03-07T02:30:13;20.80;;;14.60;;
830;SDS011;397;50.564;7.272;2024-03-07T02:32:40;21.47;;;15.50;;
830;SDS011;397;50.564;7.272;2024-03-07T02:35:08;24.77;;;16.77;;
830;SDS011;397;50.564;7.272;2024-03-07T02:37:36;26.73;;;14.40;;
830;SDS011;397;50.564;7.272;2024-03-07T02:40:03;25.27;;;14.53;;
830;SDS011;397;50.564;7.272;2024-03-07T02:42:31;25.50;;;14.93;;
830;SDS011;397;50.564;7.272;2024-03-07T02:44:59;27.47;;;16.10;;
830;SDS011;397;50.564;7.272;2024-03-07T02:47:26;20.43;;;14.00;;
830;SDS011;397;50.564;7.272;2024-03-07T02:49:53;22.47;;;15.63;;
830;SDS011;397;50.564;7.272;2024-03-07T02:52:20;25.63;;;16.20;;
830;SDS011;397;50.564;7.272;2024-03-07T02:54:48;24.43;;;16.03;;
830;SDS011;397;50.564;7.272;2024-03-07T02:57:15;24.00;;;15.30;;
830;SDS011;397;50.564;7.272;2024-03-07T02:59:42;23.23;;;15.77;;
830;SDS011;397;50.564;7.272;2024-03-07T03:02:10;25.43;;;16.93;;
830;SDS011;397;50.564;7.272;2024-03-07T03:04:37;27.00;;;17.33;;
830;SDS011;397;50.564;7.272;2024-03-07T03:07:04;23.50;;;16.13;;
830;SDS011;397;50.564;7.272;2024-03-07T03:09:33;29.03;;;18.07;;
830;SDS011;397;50.564;7.272;2024-03-07T03:12:00;21.90;;;15.10;;
830;SDS011;397;50.564;7.272;2024-03-07T03:14:27;23.73;;;16.17;;
830;SDS011;397;50.564;7.272;2024-03-07T03:16:55;25.10;;;16.07;;
830;SDS011;397;50.564;7.272;2024-03-07T03:19:22;23.00;;;15.53;;
830;SDS011;397;50.564;7.272;2024-03-07T03:21:50;28.27;;;18.73;;
830;SDS011;397;50.564;7.272;2024-03-07T03:24:17;26.70;;;15.00;;
830;SDS011;397;50.564;7.272;2024-03-07T03:26:45;24.63;;;18.07;;
830;SDS011;397;50.564;7.272;2024-03-07T03:29:12;24.97;;;16.60;;
830;SDS011;397;50.564;7.272;2024-03-07T03:31:40;22.43;;;15.30;;
830;SDS011;397;50.564;7.272;2024-03-07T03:34:07;22.47;;;14.50;;
830;SDS011;397;50.564;7.272;2024-03-07T03:36:36;21.80;;;15.57;;
830;SDS011;397;50.564;7.272;2024-03-07T03:39:03;25.63;;;15.03;;
830;SDS011;397;50.564;7.272;2024-03-07T03:41:30;21.90;;;14.70;;
830;SDS011;397;50.564;7.272;2024-03-07T03:43:57;28.43;;;17.10;;
830;SDS011;397;50.564;7.272;2024-03-07T03:46:25;22.67;;;15.50;;
830;SDS011;397;50.564;7.272;2024-03-07T03:48:52;23.17;;;16.00;;
830;SDS011;397;50.564;7.272;2024-03-07T03:51:19;22.47;;;16.20;;
830;SDS011;397;50.564;7.272;2024-03-07T03:53:48;21.70;;;15.30;;
830;SDS011;397;50.564;7.272;2024-03-07T03:56:15;23.60;;;13.73;;
830;SDS011;397;50.564;7.272;2024-03-07T03:58:43;23.30;;;16.43;;
830;SDS011;397;50.564;7.272;2024-03-07T04:01:10;22.57;;;14.40;;
830;SDS011;397;50.564;7.272;2024-03-07T04:03:40;20.20;;;16.00;;
830;SDS011;397;50.564;7.272;2024-03-07T04:06:07;25.87;;;16.77;;
830;SDS011;397;50.564;7.272;2024-03-07T04:08:35;22.83;;;16.30;;
830;SDS011;397;50.564;7.272;2024-03-07T04:11:03;24.80;;;16.50;;
830;SDS011;397;50.564;7.272;2024-03-07T04:13:30;25.50;;;16.87;;
830;SDS011;397;50.564;7.272;2024-03-07T04:15:58;26.50;;;16.90;;
830;SDS011;397;50.564;7.272;2024-03-07T04:18:25;26.87;;;15.73;;
830;SDS011;397;50.564;7.272;2024-03-07T04:20:52;22.73;;;15.57;;
830;SDS011;397;50.564;7.272;2024-03-07T04:23:20;21.93;;;15.07;;
830;SDS011;397;50.564;7.272;2024-03-07T04:25:47;21.77;;;15.70;;
830;SDS011;397;50.564;7.272;2024-03-07T04:28:15;21.97;;;17.50;;
830;SDS011;397;50.564;7.272;2024-03-07T04:30:42;27.17;;;16.07;;
830;SDS011;397;50.564;7.272;2024-03-07T04:33:09;24.60;;;15.37;;
830;SDS011;397;50.564;7.272;2024-03-07T04:35:36;27.47;;;15.90;;
830;SDS011;397;50.564;7.272;2024-03-07T04:38:04;21.77;;;16.30;;
830;SDS011;397;50.564;7.272;2024-03-07T04:40:33;22.33;;;15.87;;
830;SDS011;397;50.564;7.272;2024-03-07T04:43:01;22.10;;;14.83;;
830;SDS011;397;50.564;7.272;2024-03-07T04:45:28;22.53;;;15.33;;
830;SDS011;397;50.564;7.272;2024-03-07T04:47:55;24.00;;;16.87;;
830;SDS011;397;50.564;7.272;2024-03-07T04:50:22;25.03;;;16.93;;
830;SDS011;397;50.564;7.272;2024-03-07T04:52:50;25.33;;;17.10;;
830;SDS011;397;50.564;7.272;2024-03-07T04:55:17;24.10;;;15.57;;
830;SDS011;397;50.564;7.272;2024-03-07T04:57:44;26.23;;;16.53;;
830;SDS011;397;50.564;7.272;2024-03-07T05:00:12;25.27;;;17.60;;
830;SDS011;397;50.564;7.272;2024-03-07T05:02:41;25.67;;;17.30;;
830;SDS011;397;50.564;7.272;2024-03-07T05:05:08;30.60;;;17.27;;
830;SDS011;397;50.564;7.272;2024-03-07T05:07:35;27.50;;;17.37;;
830;SDS011;397;50.564;7.272;2024-03-07T05:10:03;25.97;;;16.97;;
830;SDS011;397;50.564;7.272;2024-03-07T05:12:31;25.70;;;17.53;;
830;SDS011;397;50.564;7.272;2024-03-07T05:14:58;24.47;;;16.00;;
830;SDS011;397;50.564;7.272;2024-03-07T05:17:25;30.03;;;18.83;;
830;SDS011;397;50.564;7.272;2024-03-07T05:19:54;27.93;;;17.83;;
830;SDS011;397;50.564;7.272;2024-03-07T05:22:22;29.50;;;18.57;;
830;SDS011;397;50.564;7.272;2024-03-07T05:24:50;25.57;;;17.40;;
830;SDS011;397;50.564;7.272;2024-03-07T05:27:18;25.33;;;16.27;;
830;SDS011;397;50.564;7.272;2024-03-07T05:29:45;26.40;;;18.17;;
830;SDS011;397;50.564;7.272;2024-03-07T05:32:21;25.43;;;17.10;;
830;SDS011;397;50.564;7.272;2024-03-07T05:34:50;26.70;;;16.20;;
830;SDS011;397;50.564;7.272;2024-03-07T05:37:17;28.57;;;17.10;;
830;SDS011;397;50.564;7.272;2024-03-07T05:39:46;26.97;;;17.27;;
830;SDS011;397;50.564;7.272;2024-03-07T05:42:13;23.90;;;15.80;;
830;SDS011;397;50.564;7.272;2024-03-07T05:44:41;28.30;;;17.27;;
830;SDS011;397;50.564;7.272;2024-03-07T05:47:08;23.00;;;15.40;;
830;SDS011;397;50.564;7.272;2024-03-07T05:49:36;22.40;;;16.30;;
830;SDS011;397;50.564;7.272;2024-03-07T05:52:04;31.17;;;18.43;;
830;SDS011;397;50.564;7.272;2024-03-07T05:54:32;29.10;;;17.73;;
830;SDS011;397;50.564;7.272;2024-03-07T05:56:59;31.13;;;19.43;;
830;SDS011;397;50.564;7.272;2024-03-07T05:59:27;25.77;;;16.13;;
830;SDS011;397;50.564;7.272;2024-03-07T06:02:00;26.03;;;17.53;;
830;SDS011;397;50.564;7.272;2024-03-07T06:04:27;30.43;;;19.83;;
830;SDS011;397;50.564;7.272;2024-03-07T06:06:55;27.87;;;17.37;;
830;SDS011;397;50.564;7.272;2024-03-07T06:09:23;29.03;;;18.57;;
830;SDS011;397;50.564;7.272;2024-03-07T06:11:50;27.10;;;18.17;;
830;SDS011;397;50.564;7.272;2024-03-07T06:14:18;28.40;;;18.03;;
830;SDS011;397;50.564;7.272;2024-03-07T06:16:46;25.60;;;16.67;;
830;SDS011;397;50.564;7.272;2024-03-07T06:19:13;24.87;;;16.83;;
830;SDS011;397;50.564;7.272;2024-03-07T06:21:40;24.87;;;17.90;;
830;SDS011;397;50.564;7.272;2024-03-07T06:24:08;33.07;;;20.00;;
830;SDS011;397;50.564;7.272;2024-03-07T06:26:37;28.23;;;18.50;;
830;SDS011;397;50.564;7.272;2024-03-07T06:29:09;25.80;;;18.67;;
830;SDS011;397;50.564;7.272;2024-03-07T06:31:40;24.80;;;18.77;;
830;SDS011;397;50.564;7.272;2024-03-07T06:34:11;27.67;;;17.40;;
830;SDS011;397;50.564;7.272;2024-03-07T06:36:40;22.57;;;17.20;;
830;SDS011;397;50.564;7.272;2024-03-07T06:39:08;32.30;;;21.10;;
830;SDS011;397;50.564;7.272;2024-03-07T06:41:37;29.00;;;16.50;;
830;SDS011;397;50.564;7.272;2024-03-07T06:44:05;26.70;;;18.20;;
830;SDS011;397;50.564;7.272;2024-03-07T06:46:33;26.90;;;18.87;;
830;SDS011;397;50.564;7.272;2024-03-07T06:49:00;28.37;;;18.17;;
830;SDS011;397;50.564;7.272;2024-03-07T06:51:28;28.90;;;19.00;;
830;SDS011;397;50.564;7.272;2024-03-07T06:53:55;29.80;;;19.80;;
830;SDS011;397;50.564;7.272;2024-03-07T06:56:23;23.40;;;18.03;;
830;SDS011;397;50.564;7.272;2024-03-07T06:58:53;26.27;;;19.70;;
830;SDS011;397;50.564;7.272;2024-03-07T07:01:20;28.10;;;18.97;;
830;SDS011;397;50.564;7.272;2024-03-07T07:03:48;26.10;;;16.63;;
830;SDS011;397;50.564;7.272;2024-03-07T07:06:15;26.17;;;17.17;;
830;SDS011;397;50.564;7.272;2024-03-07T07:08:43;26.50;;;15.97;;
830;SDS011;397;50.564;7.272;2024-03-07T07:11:11;21.53;;;15.97;;
830;SDS011;397;50.564;7.272;2024-03-07T07:13:38;23.90;;;17.60;;
830;SDS011;397;50.564;7.272;2024-03-07T07:16:05;24.53;;;16.60;;
830;SDS011;397;50.564;7.272;2024-03-07T07:18:33;23.30;;;16.40;;
830;SDS011;397;50.564;7.272;2024-03-07T07:21:02;24.70;;;16.60;;
830;SDS011;397;50.564;7.272;2024-03-07T07:23:29;25.03;;;17.93;;
830;SDS011;397;50.564;7.272;2024-03-07T07:25:56;23.13;;;16.83;;
830;SDS011;397;50.564;7.272;2024-03-07T07:28:24;26.73;;;18.53;;
830;SDS011;397;50.564;7.272;2024-03-07T07:30:51;23.50;;;17.90;;
830;SDS011;397;50.564;7.272;2024-03-07T07:33:19;21.50;;;17.33;;
830;SDS011;397;50.564;7.272;2024-03-07T07:35:46;25.60;;;16.60;;
830;SDS011;397;50.564;7.272;2024-03-07T07:38:13;20.80;;;16.43;;
830;SDS011;397;50.564;7.272;2024-03-07T07:40:41;23.97;;;17.87;;
830;SDS011;397;50.564;7.272;2024-03-07T07:43:08;20.73;;;18.00;;
830;SDS011;397;50.564;7.272;2024-03-07T07:45:37;22.27;;;17.77;;
830;SDS011;397;50.564;7.272;2024-03-07T07:48:04;23.37;;;17.90;;
830;SDS011;397;50.564;7.272;2024-03-07T07:50:32;20.70;;;16.63;;
830;SDS011;397;50.564;7.272;2024-03-07T07:53:00;23.97;;;20.30;;
830;SDS011;397;50.564;7.272;2024-03-07T07:55:29;23.57;;;19.17;;
830;SDS011;397;50.564;7.272;2024-03-07T07:57:57;24.27;;;19.17;;
830;SDS011;397;50.564;7.272;2024-03-07T08:00:25;21.90;;;17.20;;
830;SDS011;397;50.564;7.272;2024-03-07T08:02:55;20.67;;;17.63;;
830;SDS011;397;50.564;7.272;2024-03-07T08:05:28;23.90;;;19.63;;
830;SDS011;397;50.564;7.272;2024-03-07T08:07:52;21.00;;;17.30;;
830;SDS011;397;50.564;7.272;2024-03-07T08:10:24;19.40;;;17.33;;
830;SDS011;397;50.564;7.272;2024-03-07T08:12:52;20.73;;;17.60;;
830;SDS011;397;50.564;7.272;2024-03-07T08:15:19;19.03;;;16.87;;
830;SDS011;397;50.564;7.272;2024-03-07T08:17:47;20.83;;;17.13;;
830;SDS011;397;50.564;7.272;2024-03-07T08:20:16;19.07;;;16.27;;
830;SDS011;397;50.564;7.272;2024-03-07T08:22:44;20.40;;;16.50;;
830;SDS011;397;50.564;7.272;2024-03-07T08:25:14;19.87;;;16.57;;
830;SDS011;397;50.564;7.272;2024-03-07T08:27:47;21.70;;;17.10;;
830;SDS011;397;50.564;7.272;2024-03-07T08:30:11;21.83;;;16.63;;
830;SDS011;397;50.564;7.272;2024-03-07T08:32:44;19.87;;;16.50;;
830;SDS011;397;50.564;7.272;2024-03-07T08:35:12;21.10;;;16.90;;
830;SDS011;397;50.564;7.272;2024-03-07T08:37:40;19.93;;;16.90;;
830;SDS011;397;50.564;7.272;2024-03-07T08:40:08;21.13;;;16.53;;
830;SDS011;397;50.564;7.272;2024-03-07T08:42:40;22.67;;;18.50;;
830;SDS011;397;50.564;7.272;2024-03-07T08:45:08;23.60;;;18.93;;
830;SDS011;397;50.564;7.272;2024-03-07T08:47:37;21.37;;;17.77;;
830;SDS011;397;50.564;7.272;2024-03-07T08:50:04;28.40;;;19.27;;
830;SDS011;397;50.564;7.272;2024-03-07T08:52:35;21.77;;;17.77;;
830;SDS011;397;50.564;7.272;2024-03-07T08:55:07;24.50;;;19.00;;
830;SDS011;397;50.564;7.272;2024-03-07T08:57:42;23.80;;;19.57;;
830;SDS011;397;50.564;7.272;2024-03-07T09:00:11;22.90;;;18.50;;
830;SDS011;397;50.564;7.272;2024-03-07T09:02:40;25.90;;;17.77;;
830;SDS011;397;50.564;7.272;2024-03-07T09:05:08;26.27;;;17.80;;
830;SDS011;397;50.564;7.272;2024-03-07T09:07:37;23.20;;;17.47;;
830;SDS011;397;50.564;7.272;2024-03-07T09:10:05;22.73;;;16.53;;
830;SDS011;397;50.564;7.272;2024-03-07T09:12:33;20.30;;;16.33;;
830;SDS011;397;50.564;7.272;2024-03-07T09:15:01;23.33;;;18.00;;
830;SDS011;397;50.564;7.272;2024-03-07T09:17:28;23.50;;;16.70;;
830;SDS011;397;50.564;7.272;2024-03-07T09:19:56;23.90;;;17.40;;
830;SDS011;397;50.564;7.272;2024-03-07T09:22:23;21.20;;;16.77;;
830;SDS011;397;50.564;7.272;2024-03-07T09:24:50;24.23;;;18.27;;
830;SDS011;397;50.564;7.272;2024-03-07T09:27:18;22.23;;;16.73;;
830;SDS011;397;50.564;7.272;2024-03-07T09:29:46;23.60;;;18.80;;
830;SDS011;397;50.564;7.272;2024-03-07T09:32:16;18.30;;;15.47;;
830;SDS011;397;50.564;7.272;2024-03-07T09:34:43;21.70;;;17.30;;
830;SDS011;397;50.564;7.272;2024-03-07T09:37:10;21.27;;;15.07;;
830;SDS011;397;50.564;7.272;2024-03-07T09:39:38;26.00;;;19.27;;
830;SDS011;397;50.564;7.272;2024-03-07T09:42:05;21.00;;;16.30;;
830;SDS011;397;50.564;7.272;2024-03-07T09:44:40;19.63;;;15.90;;
830;SDS011;397;50.564;7.272;2024-03-07T09:47:05;26.23;;;17.60;;
830;SDS011;397;50.564;7.272;2024-03-07T09:49:34;23.47;;;18.10;;
830;SDS011;397;50.564;7.272;2024-03-07T09:52:08;23.73;;;16.37;;
830;SDS011;397;50.564;7.272;2024-03-07T09:54:38;22.90;;;17.53;;
830;SDS011;397;50.564;7.272;2024-03-07T09:57:06;20.40;;;16.53;;
830;SDS011;397;50.564;7.272;2024-03-07T09:59:36;22.93;;;17.57;;
830;SDS011;397;50.564;7.272;2024-03-07T10:02:06;20.57;;;16.90;;
830;SDS011;397;50.564;7.272;2024-03-07T10:04:43;21.37;;;15.30;;
830;SDS011;397;50.564;7.272;2024-03-07T10:07:12;19.50;;;17.30;;
830;SDS011;397;50.564;7.272;2024-03-07T10:09:40;21.57;;;17.27;;
830;SDS011;397;50.564;7.272;2024-03-07T10:12:08;22.37;;;16.47;;
830;SDS011;397;50.564;7.272;2024-03-07T10:14:48;21.10;;;16.80;;
830;SDS011;397;50.564;7.272;2024-03-07T10:17:17;21.67;;;18.37;;
830;SDS011;397;50.564;7.272;2024-03-07T10:19:47;22.57;;;16.70;;
830;SDS011;397;50.564;7.272;2024-03-07T10:22:16;24.67;;;17.27;;
830;SDS011;397;50.564;7.272;2024-03-07T10:24:50;21.80;;;18.60;;
830;SDS011;397;50.564;7.272;2024-03-07T10:27:19;23.43;;;16.73;;
830;SDS011;397;50.564;7.272;2024-03-07T10:29:48;27.90;;;18.23;;
830;SDS011;397;50.564;7.272;2024-03-07T10:32:19;23.67;;;18.63;;
830;SDS011;397;50.564;7.272;2024-03-07T10:34:47;26.33;;;19.80;;
830;SDS011;397;50.564;7.272;2024-03-07T10:37:15;24.40;;;17.80;;
830;SDS011;397;50.564;7.272;2024-03-07T10:39:47;22.27;;;18.20;;
830;SDS011;397;50.564;7.272;2024-03-07T10:42:13;24.63;;;18.70;;
830;SDS011;397;50.564;7.272;2024-03-07T10:44:49;22.97;;;17.47;;
830;SDS011;397;50.564;7.272;2024-03-07T10:47:17;21.60;;;18.50;;
830;SDS011;397;50.564;7.272;2024-03-07T10:50:34;20.50;;;17.07;;
830;SDS011;397;50.564;7.272;2024-03-07T10:52:13;25.20;;;18.10;;
830;SDS011;397;50.564;7.272;2024-03-07T10:57:20;23.43;;;17.70;;
830;SDS011;397;50.564;7.272;2024-03-07T10:59:50;23.43;;;18.47;;
830;SDS011;397;50.564;7.272;2024-03-07T11:04:53;27.30;;;19.23;;
830;SDS011;397;50.564;7.272;2024-03-07T11:07:22;23.07;;;18.07;;
830;SDS011;397;50.564;7.272;2024-03-07T11:09:51;22.23;;;18.77;;
830;SDS011;397;50.564;7.272;2024-03-07T11:12:22;24.67;;;19.40;;
830;SDS011;397;50.564;7.272;2024-03-07T11:14:47;22.80;;;18.10;;
830;SDS011;397;50.564;7.272;2024-03-07T11:17:16;24.63;;;19.93;;
830;SDS011;397;50.564;7.272;2024-03-07T11:19:45;25.77;;;19.53;;
830;SDS011;397;50.564;7.272;2024-03-07T11:22:31;22.83;;;18.40;;
830;SDS011;397;50.564;7.272;2024-03-07T11:25:04;24.40;;;18.23;;
830;SDS011;397;50.564;7.272;2024-03-07T11:27:36;22.30;;;19.90;;
830;SDS011;397;50.564;7.272;2024-03-07T11:30:05;24.00;;;19.23;;
830;SDS011;397;50.564;7.272;2024-03-07T11:32:35;23.60;;;18.37;;
830;SDS011;397;50.564;7.272;2024-03-07T11:35:04;22.50;;;15.40;;
830;SDS011;397;50.564;7.272;2024-03-07T11:37:39;24.40;;;17.90;;
830;SDS011;397;50.564;7.272;2024-03-07T11:40:12;23.03;;;16.77;;
830;SDS011;397;50.564;7.272;2024-03-07T11:42:43;27.50;;;19.23;;
830;SDS011;397;50.564;7.272;2024-03-07T11:45:10;26.43;;;18.10;;
830;SDS011;397;50.564;7.272;2024-03-07T11:47:39;23.93;;;17.93;;
830;SDS011;397;50.564;7.272;2024-03-07T11:50:07;20.03;;;15.97;;
830;SDS011;397;50.564;7.272;2024-03-07T11:52:38;18.93;;;16.90;;
830;SDS011;397;50.564;7.272;2024-03-07T11:55:10;25.47;;;17.90;;
830;SDS011;397;50.564;7.272;2024-03-07T11:57:38;23.07;;;16.60;;
830;SDS011;397;50.564;7.272;2024-03-07T12:00:07;22.70;;;17.23;;
830;SDS011;397;50.564;7.272;2024-03-07T12:02:37;19.97;;;15.07;;
830;SDS011;397;50.564;7.272;2024-03-07T12:05:05;22.07;;;18.30;;
830;SDS011;397;50.564;7.272;2024-03-07T12:07:32;22.00;;;16.10;;
830;SDS011;397;50.564;7.272;2024-03-07T12:10:00;20.77;;;16.83;;
830;SDS011;397;50.564;7.272;2024-03-07T12:12:29;20.20;;;14.53;;
830;SDS011;397;50.564;7.272;2024-03-07T12:14:56;23.03;;;16.43;;
830;SDS011;397;50.564;7.272;2024-03-07T12:17:24;23.90;;;16.57;;
830;SDS011;397;50.564;7.272;2024-03-07T12:19:52;20.57;;;14.83;;
830;SDS011;397;50.564;7.272;2024-03-07T12:22:19;19.10;;;14.77;;
830;SDS011;397;50.564;7.272;2024-03-07T12:25:02;17.03;;;14.80;;
830;SDS011;397;50.564;7.272;2024-03-07T12:27:29;20.13;;;13.90;;
830;SDS011;397;50.564;7.272;2024-03-07T12:29:56;17.30;;;14.00;;
830;SDS011;397;50.564;7.272;2024-03-07T12:32:23;17.60;;;13.63;;
830;SDS011;397;50.564;7.272;2024-03-07T12:34:52;17.10;;;12.93;;
830;SDS011;397;50.564;7.272;2024-03-07T12:37:19;13.87;;;12.00;;
830;SDS011;397;50.564;7.272;2024-03-07T12:39:48;18.17;;;12.27;;
830;SDS011;397;50.564;7.272;2024-03-07T12:42:17;15.50;;;12.53;;
830;SDS011;397;50.564;7.272;2024-03-07T12:44:44;20.07;;;13.97;;
830;SDS011;397;50.564;7.272;2024-03-07T12:47:15;17.53;;;13.27;;
830;SDS011;397;50.564;7.272;2024-03-07T12:49:43;15.50;;;13.60;;
830;SDS011;397;50.564;7.272;2024-03-07T12:52:11;17.60;;;13.73;;
830;SDS011;397;50.564;7.272;2024-03-07T12:54:44;18.37;;;13.43;;
830;SDS011;397;50.564;7.272;2024-03-07T12:57:13;15.83;;;11.97;;
830;SDS011;397;50.564;7.272;2024-03-07T12:59:40;15.53;;;11.90;;
830;SDS011;397;50.564;7.272;2024-03-07T13:02:08;13.70;;;12.03;;
830;SDS011;397;50.564;7.272;2024-03-07T13:04:36;15.93;;;12.13;;
830;SDS011;397;50.564;7.272;2024-03-07T13:07:06;16.03;;;12.93;;
830;SDS011;397;50.564;7.272;2024-03-07T13:09:34;13.43;;;11.50;;
830;SDS011;397;50.564;7.272;2024-03-07T13:12:01;16.17;;;11.03;;
830;SDS011;397;50.564;7.272;2024-03-07T13:14:30;13.53;;;11.57;;
830;SDS011;397;50.564;7.272;2024-03-07T13:16:59;15.33;;;12.80;;
830;SDS011;397;50.564;7.272;2024-03-07T13:19:27;15.33;;;12.03;;
830;SDS011;397;50.564;7.272;2024-03-07T13:21:54;15.40;;;12.43;;
830;SDS011;397;50.564;7.272;2024-03-07T13:24:22;14.00;;;12.40;;
830;SDS011;397;50.564;7.272;2024-03-07T13:26:49;15.30;;;12.30;;
830;SDS011;397;50.564;7.272;2024-03-07T13:29:17;14.90;;;11.00;;
830;SDS011;397;50.564;7.272;2024-03-07T13:31:46;16.63;;;12.37;;
830;SDS011;397;50.564;7.272;2024-03-07T13:34:13;22.20;;;11.77;;
830;SDS011;397;50.564;7.272;2024-03-07T13:36:40;14.77;;;11.83;;
830;SDS011;397;50.564;7.272;2024-03-07T13:39:11;13.43;;;11.10;;
830;SDS011;397;50.564;7.272;2024-03-07T13:41:43;16.30;;;13.37;;
830;SDS011;397;50.564;7.272;2024-03-07T13:44:14;15.47;;;13.87;;
830;SDS011;397;50.564;7.272;2024-03-07T13:46:42;13.63;;;11.20;;
830;SDS011;397;50.564;7.272;2024-03-07T13:49:09;16.37;;;12.03;;
830;SDS011;397;50.564;7.272;2024-03-07T13:51:40;14.17;;;10.93;;
830;SDS011;397;50.564;7.272;2024-03-07T13:54:09;14.90;;;11.60;;
830;SDS011;397;50.564;7.272;2024-03-07T13:56:50;14.53;;;11.93;;
830;SDS011;397;50.564;7.272;2024-03-07T14:13:13;14.40;;;11.23;;
830;SDS011;397;50.564;7.272;2024-03-07T14:28:38;13.93;;;11.03;;
830;SDS011;397;50.564;7.272;2024-03-07T14:30:57;13.27;;;11.67;;
830;SDS011;397;50.564;7.272;2024-03-07T14:33:29;16.10;;;12.13;;
830;SDS011;397;50.564;7.272;2024-03-07T14:36:03;15.30;;;11.80;;
830;SDS011;397;50.564;7.272;2024-03-07T14:41:09;12.53;;;11.10;;
830;SDS011;397;50.564;7.272;2024-03-07T14:43:38;15.07;;;11.13;;
830;SDS011;397;50.564;7.272;2024-03-07T14:46:08;18.27;;;11.43;;
830;SDS011;397;50.564;7.272;2024-03-07T14:48:36;12.23;;;10.20;;
830;SDS011;397;50.564;7.272;2024-03-07T14:51:03;13.83;;;11.10;;
830;SDS011;397;50.564;7.272;2024-03-07T14:53:30;16.03;;;11.00;;
830;SDS011;397;50.564;7.272;2024-03-07T14:55:57;15.33;;;11.73;;
830;SDS011;397;50.564;7.272;2024-03-07T14:58:25;19.30;;;11.70;;
830;SDS011;397;50.564;7.272;2024-03-07T15:00:53;16.37;;;12.00;;
830;SDS011;397;50.564;7.272;2024-03-07T15:03:20;19.93;;;14.90;;
830;SDS011;397;50.564;7.272;2024-03-07T15:05:48;15.33;;;12.97;;
830;SDS011;397;50.564;7.272;2024-03-07T15:08:15;17.57;;;13.60;;
830;SDS011;397;50.564;7.272;2024-03-07T15:10:48;16.73;;;12.83;;
830;SDS011;397;50.564;7.272;2024-03-07T15:13:12;17.03;;;12.23;;
830;SDS011;397;50.564;7.272;2024-03-07T15:15:40;14.97;;;12.27;;
830;SDS011;397;50.564;7.272;2024-03-07T15:18:09;14.80;;;13.00;;
830;SDS011;397;50.564;7.272;2024-03-07T15:20:36;17.23;;;12.83;;
830;SDS011;397;50.564;7.272;2024-03-07T15:23:04;14.17;;;11.67;;
830;SDS011;397;50.564;7.272;2024-03-07T15:25:32;16.97;;;13.47;;
830;SDS011;397;50.564;7.272;2024-03-07T15:28:01;14.80;;;11.90;;
830;SDS011;397;50.564;7.272;2024-03-07T15:30:28;15.70;;;12.90;;
830;SDS011;397;50.564;7.272;2024-03-07T15:32:57;14.47;;;12.63;;
830;SDS011;397;50.564;7.272;2024-03-07T15:35:26;14.63;;;12.43;;
830;SDS011;397;50.564;7.272;2024-03-07T15:37:54;13.13;;;11.70;;
830;SDS011;397;50.564;7.272;2024-03-07T15:40:21;22.10;;;14.57;;
830;SDS011;397;50.564;7.272;2024-03-07T15:42:50;17.23;;;13.50;;
830;SDS011;397;50.564;7.272;2024-03-07T15:45:21;15.20;;;12.50;;
830;SDS011;397;50.564;7.272;2024-03-07T15:47:53;14.70;;;12.70;;
830;SDS011;397;50.564;7.272;2024-03-07T15:50:21;15.80;;;11.67;;
830;SDS011;397;50.564;7.272;2024-03-07T15:52:49;13.20;;;11.17;;
830;SDS011;397;50.564;7.272;2024-03-07T15:55:20;14.97;;;11.63;;